Airport Name : Camilo Daza

Other Name : Cucuta

ICAO : SKCC

IATA : CUC

FAA :

Latitude : 7.927567

Longitude : -72.511547

Country : Colombia

Local Date and Time : 7/23/2018 8:16:00 AM

 

TAF (Terminal Aerodrome Forecast)

TAF SKCC 231100Z 2312/2412 VRB03KT 9999 SCT020 SCT090 BECMG 2314/2316 17017KT TEMPO 2320/2402 6000 DZRA SCT017CB SCT020 TX34/2319Z TN24/2411Z

 

METAR (METeorological Aerodrome Report)

SKCC 231300Z VRB02KT 9999 FEW022 SCT090 27/22 A2996

SKCC 231200Z 02004KT 9999 FEW022 SCT090 25/22 A2994

SKCC 231100Z 21004KT 9999 SCT020 SCT090 25/21 A2991

SKCC 231030Z VRB03KT 9999 SCT020 SCT090 25/21 A2990

SKCC 231000Z 02004KT 9999 SCT020 SCT090 25/21 A2989